Thursday, January 17, 2019, 11:20 AM GMT
Back to Local

CYCX, Gagetown Can-Mil

Location: , , Canada Lat: 45.833
Local Time: 11:20 AM GMT (11:20 GMT) Lon: -66.433
Time Zone: GMT Elev: 167 ft

Show me the last for .
Show Decoded

2019-01-17 11:00 METAR CYCX 171100Z 28013KT 15SM FEW080 M17/M23 A3017 RMK AC1 DA-4106FT SLP219 =
2019-01-17 10:00 METAR CYCX 171000Z 28013G19KT 15SM FEW080 M16/M22 A3013 RMK AC1 DA-3936FT SLP208
                 =
2019-01-17 09:00 METAR CYCX 170900Z 28011G16KT 15SM FEW080 M15/M22 A3010 RMK AC1 DA-3750FT SLP197
                 =
2019-01-17 08:00 METAR CYCX 170800Z 29017G22KT 15SM FEW090 M13/M20 A3005 RMK AC1 DA-3500FT FST
                 STFD OBS /S02 ATF 18UTC/ SLP181 =
2019-01-17 07:00 METAR CYCX 170700Z AUTO 28013KT 9SM CLR M12/M16 A3002 RMK PRESRR SLP170 =
2019-01-17 06:00 METAR CYCX 170600Z AUTO 28015G20KT 9SM CLR M10/M14 A2996 RMK SLP148 =
2019-01-17 05:00 METAR CYCX 170500Z AUTO 28017KT 9SM FEW046 M07/M12 A2990 RMK SLP129 =
2019-01-17 04:00 METAR CYCX 170400Z AUTO 28017G28KT 9SM OVC025 OVC065 M04/M09 A2985 RMK SLP112 =
2019-01-17 03:00 METAR CYCX 170300Z AUTO 24009KT 9SM FEW065 M03/M06 A2980 RMK SLP096 =
2019-01-17 02:00 METAR CYCX 170200Z AUTO 27010G15KT 9SM FEW027 FEW046 M03/M05 A2978 RMK SLP090 =
2019-01-17 01:00 METAR CYCX 170100Z AUTO 22008KT 9SM FEW076 M02/M04 A2976 RMK PCPN 0.5MM PAST HR
                 SLP080 =
2019-01-17 00:00 METAR CYCX 170000Z AUTO 21008KT 9SM SCT078 M02/M03 A2975 RMK SLP078 =
2019-01-16 23:00 METAR CYCX 162300Z AUTO 21009KT 9SM SCT076 M02/M03 A2974 RMK SLP077 =
2019-01-16 22:09 METAR CYCX 162209Z 22006KT 15SM BKN030 BKN090 M02/M03 A2975 RMK SC6AC2 DA-1647FT
                 LAST STFD OBS/NEXT 170800 UTC SLP077 =
2019-01-16 22:00 METAR CYCX 162200Z 22006KT 15SM -SN BKN030 BKN090 M02/M03 A2975 RMK SC6AC1
                 DA-1621FT PCPN VRY LGT /S02/ SLP078 =
2019-01-16 21:41 METAR CYCX 162141Z 21006KT 5SM -SN BKN030 M02/M02 A2974 RMK SC7 DA-1569FT SLP077
                 =
2019-01-16 21:15 METAR CYCX 162115Z 21007KT 2 1/2SM -SN VV015 M02/M02 A2974 RMK SN8 DA-1582FT VIS
                 VRB 1 1/2-4 SLP075 =
2019-01-16 21:00 METAR CYCX 162100Z 21006KT 1 1/2SM -SN VV015 M02/M02 A2974 RMK SN8 DA-1608FT
                 /S01/ SLP077 =
2019-01-16 20:45 METAR CYCX 162045Z 21005KT 1 1/2SM -SN VV015 M02/M03 A2975 RMK SN8 DA-1621FT
                 SLP077 =
2019-01-16 20:04 METAR CYCX 162004Z 21003KT 190V250 3SM -SN BKN018 OVC035 M07/M07 A2975 RMK
                 SC6SC2 DA-2234FT SLP080 =
2019-01-16 20:00 METAR CYCX 162000Z 23004KT 6SM -SN BKN018 OVC035 M07/M08 A2976 RMK SC6SC2
                 DA-2312FT SLP080 =
2019-01-16 19:00 METAR CYCX 161900Z 17005KT 15SM -SN FEW003 OVC041 M04/M05 A2975 RMK SF2SC6
                 DA-1913FT PCPN VRY LGT SLP078 =
2019-01-16 18:33 METAR CYCX 161833Z 14003KT 110V180 2SM -SN BKN003 OVC047 M08/M08 A2976 RMK
                 SF5SC3 DA-2392FT VIS VRB 1 1/2-2 1/2 SLP084 =
2019-01-16 18:23 METAR CYCX 161823Z 20002KT 3/4SM -SHSNGS VV003 M08/M09 A2978 RMK SN8 DA-2496FT
                 VIS VRB 1/2-1 SLP088 =
2019-01-16 18:14 METAR CYCX 161814Z 23004KT 210V290 1SM -SHSNGS VV003 M09/M10 A2978 RMK SN8
                 DA-2591FT VIS VRB 3/4-1 1/4 SLP090 =
2019-01-16 18:00 METAR CYCX 161800Z 29006KT 3SM -SHGS OVC020 M10/M11 A2979 RMK SC8 DA-2738FT
                 SLP092 =
2019-01-16 17:43 METAR CYCX 161743Z 30003KT 190V330 6SM -SG OVC024 M10/M11 A2979 RMK SC8
                 DA-2765FT SLP093 =
2019-01-16 17:00 METAR CYCX 161700Z 17007KT 120V230 12SM -SN OVC026 M03/M05 A2981 RMK SC8
                 DA-1817FT SLP098 =
2019-01-16 16:00 METAR CYCX 161600Z 09002KT 15SM -SN BKN032 OVC065 M12/M13 A2986 RMK SC6SC2
                 DA-3105FT PRESFR PCPN VRY LGT SLP117 =
2019-01-16 15:30 METAR CYCX 161530Z 34002KT 15SM -SN SCT038 OVC063 M13/M16 A2990 RMK SC4SC4
                 DA-3304FT PCPN VRY LGT SLP130 =
2019-01-16 15:00 METAR CYCX 161500Z 00000KT 15SM SCT048 OVC061 M14/M16 A2993 RMK SC3SC5 DA-3516FT
                 SLP139 =
2019-01-16 14:00 METAR CYCX 161400Z 32002KT 15SM OVC061 M16/M18 A2995 RMK SC8 DA-3733FT SLP146 =
2019-01-16 13:00 METAR CYCX 161300Z 00000KT 15SM -SN OVC055 M17/M20 A2997 RMK SC8 DA-3895FT PCPN
                 VRY LGT SLP154 =
2019-01-16 12:47 METAR CYCX 161247Z 00000KT 15SM -SN OVC055 M17/M20 A2998 RMK SC8 DA-3962FT PCPN
                 VRY LGT SLP158 =
2019-01-16 12:00 METAR CYCX 161200Z 00000KT 15SM SCT057 BKN098 M19/M22 A2999 RMK SC4AC3 DA-4169FT
                 SLP161 =

Support USWX by starting your Amazon purchase here.